sensor_id;sensor_type;location;lat;lon;timestamp;temperature;humidity
9666;DHT22;4871;52.004;5.924;2023-02-14T00:00:00;5.9;85.4
9666;DHT22;4871;52.004;5.924;2023-02-14T00:01:06;5.9;85.2
9666;DHT22;4871;52.004;5.924;2023-02-14T00:02:00;5.9;85.4
9666;DHT22;4871;52.004;5.924;2023-02-14T00:03:00;5.8;85.4
9666;DHT22;4871;52.004;5.924;2023-02-14T00:04:00;5.8;85.5
9666;DHT22;4871;52.004;5.924;2023-02-14T00:05:00;5.8;85.3
9666;DHT22;4871;52.004;5.924;2023-02-14T00:06:04;5.8;85.4
9666;DHT22;4871;52.004;5.924;2023-02-14T00:07:00;5.8;85.6
9666;DHT22;4871;52.004;5.924;2023-02-14T00:08:00;5.8;85.6
9666;DHT22;4871;52.004;5.924;2023-02-14T00:09:01;5.8;85.3
9666;DHT22;4871;52.004;5.924;2023-02-14T00:10:00;5.8;85.6
9666;DHT22;4871;52.004;5.924;2023-02-14T00:11:00;5.8;85.3
9666;DHT22;4871;52.004;5.924;2023-02-14T00:12:00;5.8;85.5
9666;DHT22;4871;52.004;5.924;2023-02-14T00:13:00;5.8;85.4
9666;DHT22;4871;52.004;5.924;2023-02-14T00:14:11;5.9;85.3
9666;DHT22;4871;52.004;5.924;2023-02-14T00:15:10;5.8;85.3
9666;DHT22;4871;52.004;5.924;2023-02-14T00:16:00;5.8;85.6
9666;DHT22;4871;52.004;5.924;2023-02-14T00:17:00;5.8;85.5
9666;DHT22;4871;52.004;5.924;2023-02-14T00:18:01;5.8;85.5
9666;DHT22;4871;52.004;5.924;2023-02-14T00:19:03;5.8;85.7
9666;DHT22;4871;52.004;5.924;2023-02-14T00:20:00;5.8;85.4
9666;DHT22;4871;52.004;5.924;2023-02-14T00:21:00;5.9;85.4
9666;DHT22;4871;52.004;5.924;2023-02-14T00:22:00;5.9;85.5
9666;DHT22;4871;52.004;5.924;2023-02-14T00:23:00;5.8;85.4
9666;DHT22;4871;52.004;5.924;2023-02-14T00:24:00;5.8;85.5
9666;DHT22;4871;52.004;5.924;2023-02-14T00:25:00;5.8;85.7
9666;DHT22;4871;52.004;5.924;2023-02-14T00:26:00;5.8;85.4
9666;DHT22;4871;52.004;5.924;2023-02-14T00:27:00;5.8;85.2
9666;DHT22;4871;52.004;5.924;2023-02-14T00:28:00;5.9;85.5
9666;DHT22;4871;52.004;5.924;2023-02-14T00:29:00;5.9;85.4
9666;DHT22;4871;52.004;5.924;2023-02-14T00:30:02;5.9;85.3
9666;DHT22;4871;52.004;5.924;2023-02-14T00:31:00;5.8;85.6
9666;DHT22;4871;52.004;5.924;2023-02-14T00:32:00;5.8;85.6
9666;DHT22;4871;52.004;5.924;2023-02-14T00:33:00;5.8;85.4
9666;DHT22;4871;52.004;5.924;2023-02-14T00:34:00;5.8;85.5
9666;DHT22;4871;52.004;5.924;2023-02-14T00:35:00;5.9;85.4
9666;DHT22;4871;52.004;5.924;2023-02-14T00:36:01;5.9;85.2
9666;DHT22;4871;52.004;5.924;2023-02-14T00:37:00;5.8;85.2
9666;DHT22;4871;52.004;5.924;2023-02-14T00:38:00;5.9;85.5
9666;DHT22;4871;52.004;5.924;2023-02-14T00:39:00;5.9;85.5
9666;DHT22;4871;52.004;5.924;2023-02-14T00:40:00;5.9;85.3
9666;DHT22;4871;52.004;5.924;2023-02-14T00:41:01;5.9;85.4
9666;DHT22;4871;52.004;5.924;2023-02-14T00:42:00;5.9;85.2
9666;DHT22;4871;52.004;5.924;2023-02-14T00:43:00;5.9;85.2
9666;DHT22;4871;52.004;5.924;2023-02-14T00:44:01;5.9;85.2
9666;DHT22;4871;52.004;5.924;2023-02-14T00:45:00;5.9;85.3
9666;DHT22;4871;52.004;5.924;2023-02-14T00:46:00;5.9;85.1
9666;DHT22;4871;52.004;5.924;2023-02-14T00:47:00;5.9;85.2
9666;DHT22;4871;52.004;5.924;2023-02-14T00:48:00;5.9;85.1
9666;DHT22;4871;52.004;5.924;2023-02-14T00:49:00;5.9;85.0
9666;DHT22;4871;52.004;5.924;2023-02-14T00:50:02;5.8;85.3
9666;DHT22;4871;52.004;5.924;2023-02-14T00:51:00;5.8;85.2
9666;DHT22;4871;52.004;5.924;2023-02-14T00:52:00;5.8;85.3
9666;DHT22;4871;52.004;5.924;2023-02-14T00:53:00;5.8;85.3
9666;DHT22;4871;52.004;5.924;2023-02-14T00:54:01;5.9;85.2
9666;DHT22;4871;52.004;5.924;2023-02-14T00:55:00;5.8;85.3
9666;DHT22;4871;52.004;5.924;2023-02-14T00:56:00;5.8;85.2
9666;DHT22;4871;52.004;5.924;2023-02-14T00:57:00;5.8;85.1
9666;DHT22;4871;52.004;5.924;2023-02-14T00:58:00;5.8;85.2
9666;DHT22;4871;52.004;5.924;2023-02-14T00:59:00;5.8;85.1
9666;DHT22;4871;52.004;5.924;2023-02-14T01:00:00;5.8;85.4
9666;DHT22;4871;52.004;5.924;2023-02-14T01:01:00;5.8;85.2
9666;DHT22;4871;52.004;5.924;2023-02-14T01:02:00;5.8;85.3
9666;DHT22;4871;52.004;5.924;2023-02-14T01:03:00;5.8;85.1
9666;DHT22;4871;52.004;5.924;2023-02-14T01:04:00;5.8;85.2
9666;DHT22;4871;52.004;5.924;2023-02-14T01:05:00;5.8;85.2
9666;DHT22;4871;52.004;5.924;2023-02-14T01:06:00;5.8;85.3
9666;DHT22;4871;52.004;5.924;2023-02-14T01:07:00;5.8;85.4
9666;DHT22;4871;52.004;5.924;2023-02-14T01:08:00;5.8;85.1
9666;DHT22;4871;52.004;5.924;2023-02-14T01:09:00;5.8;85.1
9666;DHT22;4871;52.004;5.924;2023-02-14T01:10:00;5.8;85.2
9666;DHT22;4871;52.004;5.924;2023-02-14T01:11:06;5.8;85.1
9666;DHT22;4871;52.004;5.924;2023-02-14T01:12:00;5.7;85.2
9666;DHT22;4871;52.004;5.924;2023-02-14T01:13:00;5.7;85.5
9666;DHT22;4871;52.004;5.924;2023-02-14T01:14:01;5.7;85.3
9666;DHT22;4871;52.004;5.924;2023-02-14T01:15:00;5.7;85.4
9666;DHT22;4871;52.004;5.924;2023-02-14T01:16:05;5.7;85.4
9666;DHT22;4871;52.004;5.924;2023-02-14T01:17:00;5.7;85.1
9666;DHT22;4871;52.004;5.924;2023-02-14T01:18:00;5.7;85.4
9666;DHT22;4871;52.004;5.924;2023-02-14T01:19:00;5.7;85.2
9666;DHT22;4871;52.004;5.924;2023-02-14T01:20:00;5.7;85.5
9666;DHT22;4871;52.004;5.924;2023-02-14T01:21:12;5.7;85.4
9666;DHT22;4871;52.004;5.924;2023-02-14T01:22:00;5.7;85.3
9666;DHT22;4871;52.004;5.924;2023-02-14T01:23:00;5.7;85.4
9666;DHT22;4871;52.004;5.924;2023-02-14T01:24:03;5.7;85.4
9666;DHT22;4871;52.004;5.924;2023-02-14T01:25:00;5.6;85.3
9666;DHT22;4871;52.004;5.924;2023-02-14T01:26:02;5.7;85.3
9666;DHT22;4871;52.004;5.924;2023-02-14T01:27:00;5.7;85.5
9666;DHT22;4871;52.004;5.924;2023-02-14T01:28:00;5.6;85.3
9666;DHT22;4871;52.004;5.924;2023-02-14T01:29:00;5.6;85.5
9666;DHT22;4871;52.004;5.924;2023-02-14T01:30:00;5.6;85.6
9666;DHT22;4871;52.004;5.924;2023-02-14T01:31:05;5.6;85.6
9666;DHT22;4871;52.004;5.924;2023-02-14T01:32:00;5.6;85.3
9666;DHT22;4871;52.004;5.924;2023-02-14T01:33:00;5.6;85.5
9666;DHT22;4871;52.004;5.924;2023-02-14T01:34:00;5.6;85.4
9666;DHT22;4871;52.004;5.924;2023-02-14T01:35:00;5.6;85.5
9666;DHT22;4871;52.004;5.924;2023-02-14T01:36:00;5.6;85.5
9666;DHT22;4871;52.004;5.924;2023-02-14T01:37:00;5.6;85.6
9666;DHT22;4871;52.004;5.924;2023-02-14T01:38:00;5.6;85.5
9666;DHT22;4871;52.004;5.924;2023-02-14T01:39:03;5.6;85.6
9666;DHT22;4871;52.004;5.924;2023-02-14T01:40:01;5.6;85.5
9666;DHT22;4871;52.004;5.924;2023-02-14T01:41:00;5.6;85.5
9666;DHT22;4871;52.004;5.924;2023-02-14T01:42:00;5.6;85.6
9666;DHT22;4871;52.004;5.924;2023-02-14T01:43:00;5.6;85.5
9666;DHT22;4871;52.004;5.924;2023-02-14T01:44:02;5.6;85.6
9666;DHT22;4871;52.004;5.924;2023-02-14T01:45:02;5.6;85.5
9666;DHT22;4871;52.004;5.924;2023-02-14T01:46:00;5.6;85.6
9666;DHT22;4871;52.004;5.924;2023-02-14T01:47:02;5.6;85.6
9666;DHT22;4871;52.004;5.924;2023-02-14T01:48:00;5.6;85.5
9666;DHT22;4871;52.004;5.924;2023-02-14T01:49:03;5.6;85.4
9666;DHT22;4871;52.004;5.924;2023-02-14T01:50:04;5.6;85.5
9666;DHT22;4871;52.004;5.924;2023-02-14T01:51:00;5.6;85.5
9666;DHT22;4871;52.004;5.924;2023-02-14T01:52:05;5.6;85.5
9666;DHT22;4871;52.004;5.924;2023-02-14T01:53:02;5.6;85.4
9666;DHT22;4871;52.004;5.924;2023-02-14T01:54:01;5.6;85.6
9666;DHT22;4871;52.004;5.924;2023-02-14T01:55:05;5.6;85.6
9666;DHT22;4871;52.004;5.924;2023-02-14T01:56:04;5.6;85.3
9666;DHT22;4871;52.004;5.924;2023-02-14T01:57:03;5.6;85.4
9666;DHT22;4871;52.004;5.924;2023-02-14T01:58:02;5.6;85.4
9666;DHT22;4871;52.004;5.924;2023-02-14T01:59:01;5.6;85.5
9666;DHT22;4871;52.004;5.924;2023-02-14T02:00:11;5.6;85.4
9666;DHT22;4871;52.004;5.924;2023-02-14T02:01:01;5.6;85.4
9666;DHT22;4871;52.004;5.924;2023-02-14T02:02:00;5.6;85.4
9666;DHT22;4871;52.004;5.924;2023-02-14T02:03:01;5.6;85.3
9666;DHT22;4871;52.004;5.924;2023-02-14T02:04:06;5.6;85.4
9666;DHT22;4871;52.004;5.924;2023-02-14T02:05:00;5.6;85.4
9666;DHT22;4871;52.004;5.924;2023-02-14T02:06:06;5.6;85.2
9666;DHT22;4871;52.004;5.924;2023-02-14T02:07:03;5.6;85.5
9666;DHT22;4871;52.004;5.924;2023-02-14T02:08:01;5.6;85.2
9666;DHT22;4871;52.004;5.924;2023-02-14T02:09:07;5.6;85.4
9666;DHT22;4871;52.004;5.924;2023-02-14T02:10:02;5.6;85.4
9666;DHT22;4871;52.004;5.924;2023-02-14T02:11:00;5.6;85.5
9666;DHT22;4871;52.004;5.924;2023-02-14T02:12:01;5.6;85.4
9666;DHT22;4871;52.004;5.924;2023-02-14T02:13:04;5.5;85.5
9666;DHT22;4871;52.004;5.924;2023-02-14T02:14:00;5.6;85.5
9666;DHT22;4871;52.004;5.924;2023-02-14T02:15:01;5.6;85.4
9666;DHT22;4871;52.004;5.924;2023-02-14T02:16:11;5.6;85.5
9666;DHT22;4871;52.004;5.924;2023-02-14T02:17:10;5.5;85.4
9666;DHT22;4871;52.004;5.924;2023-02-14T02:18:05;5.5;85.5
9666;DHT22;4871;52.004;5.924;2023-02-14T02:19:17;5.5;85.5
9666;DHT22;4871;52.004;5.924;2023-02-14T02:20:18;5.5;85.5
9666;DHT22;4871;52.004;5.924;2023-02-14T02:21:16;5.5;85.6
9666;DHT22;4871;52.004;5.924;2023-02-14T02:22:12;5.5;85.5
9666;DHT22;4871;52.004;5.924;2023-02-14T02:23:16;5.5;85.5
9666;DHT22;4871;52.004;5.924;2023-02-14T02:24:08;5.5;85.3
9666;DHT22;4871;52.004;5.924;2023-02-14T02:25:09;5.5;85.4
9666;DHT22;4871;52.004;5.924;2023-02-14T02:26:31;5.5;85.3
9666;DHT22;4871;52.004;5.924;2023-02-14T02:27:15;5.5;85.3
9666;DHT22;4871;52.004;5.924;2023-02-14T02:28:18;5.5;85.5
9666;DHT22;4871;52.004;5.924;2023-02-14T02:29:16;5.5;85.4
9666;DHT22;4871;52.004;5.924;2023-02-14T02:31:10;5.5;85.5
9666;DHT22;4871;52.004;5.924;2023-02-14T02:32:09;5.5;85.5
9666;DHT22;4871;52.004;5.924;2023-02-14T02:33:31;5.5;85.4
9666;DHT22;4871;52.004;5.924;2023-02-14T02:34:15;5.5;85.4
9666;DHT22;4871;52.004;5.924;2023-02-14T02:35:16;5.5;85.5
9666;DHT22;4871;52.004;5.924;2023-02-14T02:36:10;5.5;85.5
9666;DHT22;4871;52.004;5.924;2023-02-14T02:37:08;5.4;85.6
9666;DHT22;4871;52.004;5.924;2023-02-14T02:38:12;5.5;85.3
9666;DHT22;4871;52.004;5.924;2023-02-14T02:39:11;5.4;85.5
9666;DHT22;4871;52.004;5.924;2023-02-14T02:40:08;5.5;85.5
9666;DHT22;4871;52.004;5.924;2023-02-14T02:41:03;5.5;85.4
9666;DHT22;4871;52.004;5.924;2023-02-14T02:42:05;5.4;85.5
9666;DHT22;4871;52.004;5.924;2023-02-14T02:43:07;5.4;85.5
9666;DHT22;4871;52.004;5.924;2023-02-14T02:44:08;5.4;85.5
9666;DHT22;4871;52.004;5.924;2023-02-14T02:45:06;5.4;85.4
9666;DHT22;4871;52.004;5.924;2023-02-14T02:46:15;5.4;85.4
9666;DHT22;4871;52.004;5.924;2023-02-14T02:47:03;5.4;85.2
9666;DHT22;4871;52.004;5.924;2023-02-14T02:48:04;5.4;85.4
9666;DHT22;4871;52.004;5.924;2023-02-14T02:49:07;5.4;85.4
9666;DHT22;4871;52.004;5.924;2023-02-14T02:50:19;5.4;85.3
9666;DHT22;4871;52.004;5.924;2023-02-14T02:51:16;5.4;85.5
9666;DHT22;4871;52.004;5.924;2023-02-14T02:52:15;5.4;85.4
9666;DHT22;4871;52.004;5.924;2023-02-14T02:53:12;5.4;85.5
9666;DHT22;4871;52.004;5.924;2023-02-14T02:54:05;5.4;85.6
9666;DHT22;4871;52.004;5.924;2023-02-14T02:55:03;5.4;85.4
9666;DHT22;4871;52.004;5.924;2023-02-14T02:56:13;5.4;85.2
9666;DHT22;4871;52.004;5.924;2023-02-14T02:57:04;5.4;85.4
9666;DHT22;4871;52.004;5.924;2023-02-14T02:58:01;5.4;85.4
9666;DHT22;4871;52.004;5.924;2023-02-14T02:59:02;5.4;85.4
9666;DHT22;4871;52.004;5.924;2023-02-14T03:00:02;5.4;85.5
9666;DHT22;4871;52.004;5.924;2023-02-14T03:01:05;5.4;85.5
9666;DHT22;4871;52.004;5.924;2023-02-14T03:02:04;5.4;85.4
9666;DHT22;4871;52.004;5.924;2023-02-14T03:03:10;5.4;85.6
9666;DHT22;4871;52.004;5.924;2023-02-14T03:04:11;5.3;85.4
9666;DHT22;4871;52.004;5.924;2023-02-14T03:05:03;5.4;85.5
9666;DHT22;4871;52.004;5.924;2023-02-14T03:06:01;5.4;85.5
9666;DHT22;4871;52.004;5.924;2023-02-14T03:07:00;5.3;85.4
9666;DHT22;4871;52.004;5.924;2023-02-14T03:08:01;5.4;85.4
9666;DHT22;4871;52.004;5.924;2023-02-14T03:09:08;5.4;85.4
9666;DHT22;4871;52.004;5.924;2023-02-14T03:10:06;5.3;85.4
9666;DHT22;4871;52.004;5.924;2023-02-14T03:11:01;5.3;85.4
9666;DHT22;4871;52.004;5.924;2023-02-14T03:12:07;5.3;85.5
9666;DHT22;4871;52.004;5.924;2023-02-14T03:13:15;5.3;85.3
9666;DHT22;4871;52.004;5.924;2023-02-14T03:14:07;5.3;85.3
9666;DHT22;4871;52.004;5.924;2023-02-14T03:15:07;5.3;85.4
9666;DHT22;4871;52.004;5.924;2023-02-14T03:16:29;5.3;85.6
9666;DHT22;4871;52.004;5.924;2023-02-14T03:17:04;5.3;85.5
9666;DHT22;4871;52.004;5.924;2023-02-14T03:18:06;5.3;85.6
9666;DHT22;4871;52.004;5.924;2023-02-14T03:19:29;5.3;85.5
9666;DHT22;4871;52.004;5.924;2023-02-14T03:20:15;5.3;85.5
9666;DHT22;4871;52.004;5.924;2023-02-14T03:21:09;5.3;85.4
9666;DHT22;4871;52.004;5.924;2023-02-14T03:22:05;5.3;85.6
9666;DHT22;4871;52.004;5.924;2023-02-14T03:23:03;5.3;85.5
9666;DHT22;4871;52.004;5.924;2023-02-14T03:24:04;5.2;85.5
9666;DHT22;4871;52.004;5.924;2023-02-14T03:25:08;5.2;85.4
9666;DHT22;4871;52.004;5.924;2023-02-14T03:26:04;5.2;85.5
9666;DHT22;4871;52.004;5.924;2023-02-14T03:27:05;5.2;85.5
9666;DHT22;4871;52.004;5.924;2023-02-14T03:28:06;5.2;85.5
9666;DHT22;4871;52.004;5.924;2023-02-14T03:29:08;5.2;85.5
9666;DHT22;4871;52.004;5.924;2023-02-14T03:30:05;5.2;85.5
9666;DHT22;4871;52.004;5.924;2023-02-14T03:31:03;5.2;85.5
9666;DHT22;4871;52.004;5.924;2023-02-14T03:32:03;5.2;85.5
9666;DHT22;4871;52.004;5.924;2023-02-14T03:33:04;5.2;85.4
9666;DHT22;4871;52.004;5.924;2023-02-14T03:34:11;5.2;85.4
9666;DHT22;4871;52.004;5.924;2023-02-14T03:35:09;5.2;85.5
9666;DHT22;4871;52.004;5.924;2023-02-14T03:36:05;5.2;85.5
9666;DHT22;4871;52.004;5.924;2023-02-14T03:37:05;5.1;85.4
9666;DHT22;4871;52.004;5.924;2023-02-14T03:38:06;5.1;85.6
9666;DHT22;4871;52.004;5.924;2023-02-14T03:39:04;5.1;85.5
9666;DHT22;4871;52.004;5.924;2023-02-14T03:40:05;5.1;85.4
9666;DHT22;4871;52.004;5.924;2023-02-14T03:41:02;5.1;85.4
9666;DHT22;4871;52.004;5.924;2023-02-14T03:42:06;5.1;85.4
9666;DHT22;4871;52.004;5.924;2023-02-14T03:43:04;5.1;85.4
9666;DHT22;4871;52.004;5.924;2023-02-14T03:44:02;5.1;85.4
9666;DHT22;4871;52.004;5.924;2023-02-14T03:45:02;5.1;85.5
9666;DHT22;4871;52.004;5.924;2023-02-14T03:46:04;5.1;85.4
9666;DHT22;4871;52.004;5.924;2023-02-14T03:47:03;5.1;85.3
9666;DHT22;4871;52.004;5.924;2023-02-14T03:48:03;5.1;85.4
9666;DHT22;4871;52.004;5.924;2023-02-14T03:49:04;5.0;85.2
9666;DHT22;4871;52.004;5.924;2023-02-14T03:50:03;5.0;85.5
9666;DHT22;4871;52.004;5.924;2023-02-14T03:51:01;5.0;85.3
9666;DHT22;4871;52.004;5.924;2023-02-14T03:52:02;5.0;85.5
9666;DHT22;4871;52.004;5.924;2023-02-14T03:53:01;5.0;85.4
9666;DHT22;4871;52.004;5.924;2023-02-14T03:54:02;5.0;85.4
9666;DHT22;4871;52.004;5.924;2023-02-14T03:55:02;5.0;85.4
9666;DHT22;4871;52.004;5.924;2023-02-14T03:56:02;5.0;85.6
9666;DHT22;4871;52.004;5.924;2023-02-14T03:57:04;5.0;85.6
9666;DHT22;4871;52.004;5.924;2023-02-14T03:58:05;4.9;85.6
9666;DHT22;4871;52.004;5.924;2023-02-14T03:59:06;4.9;85.6
9666;DHT22;4871;52.004;5.924;2023-02-14T04:00:01;4.9;85.7
9666;DHT22;4871;52.004;5.924;2023-02-14T04:01:05;4.9;85.5
9666;DHT22;4871;52.004;5.924;2023-02-14T04:02:04;4.9;85.7
9666;DHT22;4871;52.004;5.924;2023-02-14T04:03:02;4.9;85.6
9666;DHT22;4871;52.004;5.924;2023-02-14T04:04:01;4.9;85.4
9666;DHT22;4871;52.004;5.924;2023-02-14T04:05:02;4.9;85.8
9666;DHT22;4871;52.004;5.924;2023-02-14T04:06:00;4.9;85.8
9666;DHT22;4871;52.004;5.924;2023-02-14T04:07:07;4.9;85.4
9666;DHT22;4871;52.004;5.924;2023-02-14T04:08:00;4.9;85.7
9666;DHT22;4871;52.004;5.924;2023-02-14T04:09:00;4.9;85.8
9666;DHT22;4871;52.004;5.924;2023-02-14T04:10:00;4.9;85.7
9666;DHT22;4871;52.004;5.924;2023-02-14T04:11:01;4.9;85.8
9666;DHT22;4871;52.004;5.924;2023-02-14T04:12:00;4.9;85.5
9666;DHT22;4871;52.004;5.924;2023-02-14T04:13:00;4.9;85.6
9666;DHT22;4871;52.004;5.924;2023-02-14T04:14:00;4.9;85.5
9666;DHT22;4871;52.004;5.924;2023-02-14T04:15:00;4.9;85.6
9666;DHT22;4871;52.004;5.924;2023-02-14T04:16:00;4.9;85.6
9666;DHT22;4871;52.004;5.924;2023-02-14T04:17:10;4.8;85.6
9666;DHT22;4871;52.004;5.924;2023-02-14T04:18:10;4.8;85.6
9666;DHT22;4871;52.004;5.924;2023-02-14T04:19:10;4.8;85.5
9666;DHT22;4871;52.004;5.924;2023-02-14T04:20:00;4.8;85.7
9666;DHT22;4871;52.004;5.924;2023-02-14T04:21:00;4.8;85.7
9666;DHT22;4871;52.004;5.924;2023-02-14T04:22:00;4.8;85.5
9666;DHT22;4871;52.004;5.924;2023-02-14T04:23:00;4.8;85.7
9666;DHT22;4871;52.004;5.924;2023-02-14T04:24:00;4.8;85.7
9666;DHT22;4871;52.004;5.924;2023-02-14T04:25:00;4.8;85.6
9666;DHT22;4871;52.004;5.924;2023-02-14T04:26:02;4.7;85.5
9666;DHT22;4871;52.004;5.924;2023-02-14T04:27:10;4.8;85.8
9666;DHT22;4871;52.004;5.924;2023-02-14T04:28:00;4.8;85.6
9666;DHT22;4871;52.004;5.924;2023-02-14T04:29:00;4.8;85.6
9666;DHT22;4871;52.004;5.924;2023-02-14T04:30:00;4.7;85.8
9666;DHT22;4871;52.004;5.924;2023-02-14T04:31:00;4.7;85.6
9666;DHT22;4871;52.004;5.924;2023-02-14T04:32:00;4.7;85.8
9666;DHT22;4871;52.004;5.924;2023-02-14T04:33:01;4.7;85.7
9666;DHT22;4871;52.004;5.924;2023-02-14T04:34:00;4.7;85.7
9666;DHT22;4871;52.004;5.924;2023-02-14T04:35:00;4.7;85.8
9666;DHT22;4871;52.004;5.924;2023-02-14T04:36:00;4.7;85.7
9666;DHT22;4871;52.004;5.924;2023-02-14T04:37:01;4.7;85.7
9666;DHT22;4871;52.004;5.924;2023-02-14T04:38:00;4.7;85.6
9666;DHT22;4871;52.004;5.924;2023-02-14T04:39:00;4.7;85.6
9666;DHT22;4871;52.004;5.924;2023-02-14T04:40:00;4.7;85.6
9666;DHT22;4871;52.004;5.924;2023-02-14T04:41:00;4.7;85.7
9666;DHT22;4871;52.004;5.924;2023-02-14T04:42:00;4.7;85.3
9666;DHT22;4871;52.004;5.924;2023-02-14T04:43:00;4.7;85.6
9666;DHT22;4871;52.004;5.924;2023-02-14T04:44:00;4.7;85.4
9666;DHT22;4871;52.004;5.924;2023-02-14T04:45:00;4.7;85.6
9666;DHT22;4871;52.004;5.924;2023-02-14T04:46:00;4.7;85.6
9666;DHT22;4871;52.004;5.924;2023-02-14T04:47:00;4.7;85.7
9666;DHT22;4871;52.004;5.924;2023-02-14T04:48:00;4.7;85.6
9666;DHT22;4871;52.004;5.924;2023-02-14T04:49:00;4.6;85.7
9666;DHT22;4871;52.004;5.924;2023-02-14T04:50:00;4.6;85.9
9666;DHT22;4871;52.004;5.924;2023-02-14T04:51:00;4.6;85.8
9666;DHT22;4871;52.004;5.924;2023-02-14T04:52:00;4.6;85.9
9666;DHT22;4871;52.004;5.924;2023-02-14T04:53:00;4.6;85.9
9666;DHT22;4871;52.004;5.924;2023-02-14T04:54:00;4.6;85.7
9666;DHT22;4871;52.004;5.924;2023-02-14T04:55:00;4.6;85.9
9666;DHT22;4871;52.004;5.924;2023-02-14T04:56:00;4.6;85.7
9666;DHT22;4871;52.004;5.924;2023-02-14T04:57:00;4.6;85.6
9666;DHT22;4871;52.004;5.924;2023-02-14T04:58:00;4.6;85.7
9666;DHT22;4871;52.004;5.924;2023-02-14T04:59:00;4.6;85.5
9666;DHT22;4871;52.004;5.924;2023-02-14T05:00:00;4.6;85.8
9666;DHT22;4871;52.004;5.924;2023-02-14T05:01:00;4.6;85.5
9666;DHT22;4871;52.004;5.924;2023-02-14T05:02:00;4.6;85.7
9666;DHT22;4871;52.004;5.924;2023-02-14T05:03:00;4.6;85.6
9666;DHT22;4871;52.004;5.924;2023-02-14T05:04:00;4.6;85.7
9666;DHT22;4871;52.004;5.924;2023-02-14T05:05:00;4.6;85.6
9666;DHT22;4871;52.004;5.924;2023-02-14T05:06:00;4.6;85.7
9666;DHT22;4871;52.004;5.924;2023-02-14T05:07:00;4.6;85.8
9666;DHT22;4871;52.004;5.924;2023-02-14T05:08:00;4.6;85.8
9666;DHT22;4871;52.004;5.924;2023-02-14T05:09:01;4.6;85.8
9666;DHT22;4871;52.004;5.924;2023-02-14T05:10:00;4.6;85.8
9666;DHT22;4871;52.004;5.924;2023-02-14T05:11:00;4.6;85.7
9666;DHT22;4871;52.004;5.924;2023-02-14T05:12:00;4.5;85.8
9666;DHT22;4871;52.004;5.924;2023-02-14T05:13:00;4.5;85.7
9666;DHT22;4871;52.004;5.924;2023-02-14T05:14:00;4.5;85.7
9666;DHT22;4871;52.004;5.924;2023-02-14T05:15:00;4.5;85.7
9666;DHT22;4871;52.004;5.924;2023-02-14T05:16:01;4.5;85.9
9666;DHT22;4871;52.004;5.924;2023-02-14T05:17:00;4.5;85.9
9666;DHT22;4871;52.004;5.924;2023-02-14T05:18:01;4.5;85.9
9666;DHT22;4871;52.004;5.924;2023-02-14T05:19:00;4.5;85.9
9666;DHT22;4871;52.004;5.924;2023-02-14T05:20:00;4.5;85.9
9666;DHT22;4871;52.004;5.924;2023-02-14T05:21:00;4.5;86.0
9666;DHT22;4871;52.004;5.924;2023-02-14T05:22:00;4.5;85.7
9666;DHT22;4871;52.004;5.924;2023-02-14T05:23:02;4.5;85.7
9666;DHT22;4871;52.004;5.924;2023-02-14T05:24:00;4.5;85.8
9666;DHT22;4871;52.004;5.924;2023-02-14T05:25:00;4.5;85.8
9666;DHT22;4871;52.004;5.924;2023-02-14T05:26:00;4.5;85.9
9666;DHT22;4871;52.004;5.924;2023-02-14T05:27:00;4.5;85.7
9666;DHT22;4871;52.004;5.924;2023-02-14T05:28:00;4.5;85.8
9666;DHT22;4871;52.004;5.924;2023-02-14T05:29:01;4.5;85.9
9666;DHT22;4871;52.004;5.924;2023-02-14T05:30:00;4.5;85.7
9666;DHT22;4871;52.004;5.924;2023-02-14T05:31:01;4.5;85.6
9666;DHT22;4871;52.004;5.924;2023-02-14T05:32:00;4.5;85.9
9666;DHT22;4871;52.004;5.924;2023-02-14T05:33:00;4.5;85.8
9666;DHT22;4871;52.004;5.924;2023-02-14T05:34:00;4.5;85.7
9666;DHT22;4871;52.004;5.924;2023-02-14T05:35:00;4.5;85.6
9666;DHT22;4871;52.004;5.924;2023-02-14T05:36:02;4.5;85.7
9666;DHT22;4871;52.004;5.924;2023-02-14T05:37:02;4.5;85.7
9666;DHT22;4871;52.004;5.924;2023-02-14T05:38:00;4.5;85.7
9666;DHT22;4871;52.004;5.924;2023-02-14T05:39:00;4.5;85.8
9666;DHT22;4871;52.004;5.924;2023-02-14T05:40:00;4.5;85.8
9666;DHT22;4871;52.004;5.924;2023-02-14T05:41:00;4.5;85.6
9666;DHT22;4871;52.004;5.924;2023-02-14T05:42:00;4.5;85.7
9666;DHT22;4871;52.004;5.924;2023-02-14T05:43:00;4.5;85.8
9666;DHT22;4871;52.004;5.924;2023-02-14T05:44:01;4.5;85.6
9666;DHT22;4871;52.004;5.924;2023-02-14T05:45:01;4.5;85.6
9666;DHT22;4871;52.004;5.924;2023-02-14T05:46:00;4.5;85.7
9666;DHT22;4871;52.004;5.924;2023-02-14T05:47:00;4.5;85.4
9666;DHT22;4871;52.004;5.924;2023-02-14T05:48:00;4.4;85.6
9666;DHT22;4871;52.004;5.924;2023-02-14T05:49:00;4.4;85.7
9666;DHT22;4871;52.004;5.924;2023-02-14T05:50:00;4.4;85.7
9666;DHT22;4871;52.004;5.924;2023-02-14T05:51:02;4.4;85.6
9666;DHT22;4871;52.004;5.924;2023-02-14T05:52:00;4.4;85.7
9666;DHT22;4871;52.004;5.924;2023-02-14T05:53:00;4.4;85.5
9666;DHT22;4871;52.004;5.924;2023-02-14T05:54:00;4.4;85.8
9666;DHT22;4871;52.004;5.924;2023-02-14T05:55:01;4.4;85.7
9666;DHT22;4871;52.004;5.924;2023-02-14T05:56:00;4.4;85.7
9666;DHT22;4871;52.004;5.924;2023-02-14T05:57:00;4.4;85.6
9666;DHT22;4871;52.004;5.924;2023-02-14T05:58:00;4.4;85.7
9666;DHT22;4871;52.004;5.924;2023-02-14T05:59:00;4.4;85.7
9666;DHT22;4871;52.004;5.924;2023-02-14T06:00:00;4.3;85.5
9666;DHT22;4871;52.004;5.924;2023-02-14T06:01:00;4.3;85.5
9666;DHT22;4871;52.004;5.924;2023-02-14T06:02:00;4.3;85.7
9666;DHT22;4871;52.004;5.924;2023-02-14T06:03:00;4.3;85.6
9666;DHT22;4871;52.004;5.924;2023-02-14T06:04:00;4.3;85.7
9666;DHT22;4871;52.004;5.924;2023-02-14T06:05:00;4.3;85.6
9666;DHT22;4871;52.004;5.924;2023-02-14T06:06:00;4.3;85.8
9666;DHT22;4871;52.004;5.924;2023-02-14T06:07:00;4.3;85.7
9666;DHT22;4871;52.004;5.924;2023-02-14T06:08:00;4.3;85.8
9666;DHT22;4871;52.004;5.924;2023-02-14T06:09:00;4.3;85.6
9666;DHT22;4871;52.004;5.924;2023-02-14T06:10:00;4.3;85.7
9666;DHT22;4871;52.004;5.924;2023-02-14T06:11:00;4.3;85.5
9666;DHT22;4871;52.004;5.924;2023-02-14T06:12:00;4.2;85.6
9666;DHT22;4871;52.004;5.924;2023-02-14T06:13:01;4.3;85.7
9666;DHT22;4871;52.004;5.924;2023-02-14T06:14:00;4.2;85.6
9666;DHT22;4871;52.004;5.924;2023-02-14T06:15:00;4.3;85.6
9666;DHT22;4871;52.004;5.924;2023-02-14T06:16:01;4.3;85.6
9666;DHT22;4871;52.004;5.924;2023-02-14T06:17:00;4.3;85.5
9666;DHT22;4871;52.004;5.924;2023-02-14T06:18:00;4.2;85.6
9666;DHT22;4871;52.004;5.924;2023-02-14T06:19:00;4.2;85.6
9666;DHT22;4871;52.004;5.924;2023-02-14T06:20:00;4.2;85.3
9666;DHT22;4871;52.004;5.924;2023-02-14T06:21:00;4.1;85.5
9666;DHT22;4871;52.004;5.924;2023-02-14T06:22:00;4.2;85.8
9666;DHT22;4871;52.004;5.924;2023-02-14T06:23:01;4.2;85.7
9666;DHT22;4871;52.004;5.924;2023-02-14T06:24:00;4.2;85.9
9666;DHT22;4871;52.004;5.924;2023-02-14T06:25:00;4.2;85.8
9666;DHT22;4871;52.004;5.924;2023-02-14T06:26:00;4.2;85.7
9666;DHT22;4871;52.004;5.924;2023-02-14T06:27:00;4.2;85.5
9666;DHT22;4871;52.004;5.924;2023-02-14T06:28:00;4.2;85.7
9666;DHT22;4871;52.004;5.924;2023-02-14T06:29:01;4.1;85.7
9666;DHT22;4871;52.004;5.924;2023-02-14T06:30:00;4.2;85.8
9666;DHT22;4871;52.004;5.924;2023-02-14T06:31:00;4.2;85.6
9666;DHT22;4871;52.004;5.924;2023-02-14T06:32:04;4.1;85.6
9666;DHT22;4871;52.004;5.924;2023-02-14T06:33:00;4.1;85.8
9666;DHT22;4871;52.004;5.924;2023-02-14T06:34:00;4.1;85.7
9666;DHT22;4871;52.004;5.924;2023-02-14T06:35:01;4.1;85.7
9666;DHT22;4871;52.004;5.924;2023-02-14T06:36:00;4.1;85.8
9666;DHT22;4871;52.004;5.924;2023-02-14T06:37:00;4.1;85.8
9666;DHT22;4871;52.004;5.924;2023-02-14T06:38:00;4.1;85.7
9666;DHT22;4871;52.004;5.924;2023-02-14T06:39:00;4.1;85.5
9666;DHT22;4871;52.004;5.924;2023-02-14T06:40:00;4.1;85.6
9666;DHT22;4871;52.004;5.924;2023-02-14T06:41:02;4.1;85.5
9666;DHT22;4871;52.004;5.924;2023-02-14T06:42:00;4.1;85.6
9666;DHT22;4871;52.004;5.924;2023-02-14T06:43:00;4.0;85.6
9666;DHT22;4871;52.004;5.924;2023-02-14T06:44:00;4.0;85.7
9666;DHT22;4871;52.004;5.924;2023-02-14T06:45:01;4.0;85.4
9666;DHT22;4871;52.004;5.924;2023-02-14T06:46:00;4.0;85.8
9666;DHT22;4871;52.004;5.924;2023-02-14T06:47:00;4.0;85.7
9666;DHT22;4871;52.004;5.924;2023-02-14T06:48:00;4.0;85.3
9666;DHT22;4871;52.004;5.924;2023-02-14T06:49:00;4.0;85.8
9666;DHT22;4871;52.004;5.924;2023-02-14T06:50:00;4.0;85.6
9666;DHT22;4871;52.004;5.924;2023-02-14T06:51:00;4.0;85.7
9666;DHT22;4871;52.004;5.924;2023-02-14T06:52:00;4.0;85.6